createdAt,value
2018-10-16T00:00:47.414Z,25.73
2018-10-16T00:03:17.877Z,21.10
2018-10-16T00:05:47.980Z,17.80
2018-10-16T00:08:19.662Z,19.43
2018-10-16T00:10:50.121Z,23.90
2018-10-16T00:13:20.538Z,18.50
2018-10-16T00:15:51.070Z,20.20
2018-10-16T00:18:21.235Z,23.90
2018-10-16T00:20:53.250Z,20.30
2018-10-16T00:23:23.305Z,15.33
2018-10-16T00:25:53.677Z,15.83
2018-10-16T00:28:26.378Z,19.57
2018-10-16T00:30:58.262Z,22.73
2018-10-16T00:33:28.526Z,21.63
2018-10-16T00:35:58.603Z,16.50
2018-10-16T00:38:28.654Z,22.03
2018-10-16T00:40:58.469Z,15.20
2018-10-16T00:43:31.416Z,21.90
2018-10-16T00:46:01.781Z,20.07
2018-10-16T00:48:32.585Z,14.20
2018-10-16T00:51:02.669Z,16.00
2018-10-16T00:53:32.751Z,14.37
2018-10-16T00:56:02.770Z,19.20
2018-10-16T00:58:32.758Z,11.70
2018-10-16T01:01:02.821Z,12.60
2018-10-16T01:03:32.989Z,13.57
2018-10-16T01:06:02.960Z,16.00
2018-10-16T01:08:33.111Z,14.67
2018-10-16T01:11:03.631Z,17.27
2018-10-16T01:13:34.065Z,12.30
2018-10-16T01:16:05.270Z,17.20
2018-10-16T01:18:35.519Z,19.53
2018-10-16T01:21:05.569Z,11.40
2018-10-16T01:23:36.664Z,14.03
2018-10-16T01:26:06.817Z,16.20
2018-10-16T01:28:37.201Z,15.63
2018-10-16T01:31:08.189Z,11.50
2018-10-16T01:33:38.910Z,14.43
2018-10-16T01:36:09.844Z,14.33
2018-10-16T01:38:39.910Z,15.07
2018-10-16T01:41:11.065Z,17.67
2018-10-16T01:43:41.263Z,17.23
2018-10-16T01:46:11.382Z,17.67
2018-10-16T01:48:41.671Z,17.40
2018-10-16T01:51:11.729Z,15.33
2018-10-16T01:53:41.850Z,20.40
2018-10-16T01:56:12.878Z,19.87
2018-10-16T01:58:42.928Z,19.10
2018-10-16T02:01:12.991Z,17.60
2018-10-16T02:03:43.227Z,20.83
2018-10-16T02:06:13.691Z,20.30
2018-10-16T02:08:43.688Z,22.53
2018-10-16T02:11:13.696Z,23.37
2018-10-16T02:13:43.898Z,19.83
2018-10-16T02:16:14.991Z,25.60
2018-10-16T02:18:45.171Z,21.47
2018-10-16T02:21:16.069Z,22.13
2018-10-16T02:23:46.270Z,22.57
2018-10-16T02:26:16.381Z,21.37
2018-10-16T02:28:46.307Z,28.30
2018-10-16T02:31:16.815Z,25.83
2018-10-16T02:33:47.015Z,28.50
2018-10-16T02:36:18.227Z,26.60
2018-10-16T02:38:48.407Z,25.70
2018-10-16T02:41:18.590Z,21.80
2018-10-16T02:43:48.609Z,26.47
2018-10-16T02:46:18.756Z,20.57
2018-10-16T02:48:49.709Z,20.83
2018-10-16T02:51:20.603Z,22.87
2018-10-16T02:53:50.767Z,19.40
2018-10-16T02:56:20.890Z,25.30
2018-10-16T02:58:50.956Z,20.13
2018-10-16T03:01:21.139Z,24.17
2018-10-16T03:03:51.320Z,26.47
2018-10-16T03:06:21.688Z,22.90
2018-10-16T03:08:51.610Z,23.33
2018-10-16T03:11:22.413Z,23.67
2018-10-16T03:13:52.544Z,26.30
2018-10-16T03:16:22.702Z,31.97
2018-10-16T03:18:52.749Z,28.33
2018-10-16T03:21:22.808Z,28.83
2018-10-16T03:23:53.425Z,25.13
2018-10-16T03:26:24.988Z,27.03
2018-10-16T03:28:55.372Z,28.87
2018-10-16T03:31:25.538Z,33.13
2018-10-16T03:33:55.962Z,40.50
2018-10-16T03:36:25.859Z,41.80
2018-10-16T03:38:56.530Z,41.60
2018-10-16T03:41:26.413Z,36.53
2018-10-16T03:44:00.817Z,35.23
2018-10-16T03:46:32.553Z,30.23
2018-10-16T03:49:02.732Z,29.43
2018-10-16T03:51:32.722Z,25.10
2018-10-16T03:54:02.777Z,19.33
2018-10-16T03:56:33.670Z,23.53
2018-10-16T03:59:03.712Z,28.20
2018-10-16T04:01:34.064Z,25.47
2018-10-16T04:04:04.276Z,18.77
2018-10-16T04:06:35.163Z,14.73
2018-10-16T04:09:05.792Z,15.33
2018-10-16T04:11:35.820Z,13.47
2018-10-16T04:14:06.439Z,24.60
2018-10-16T04:16:37.329Z,32.77
2018-10-16T04:19:07.444Z,29.40
2018-10-16T04:21:46.746Z,41.07
2018-10-16T04:24:17.014Z,31.13
2018-10-16T04:26:48.968Z,30.10
2018-10-16T04:29:19.564Z,21.77
2018-10-16T04:31:50.749Z,29.70
2018-10-16T04:34:21.579Z,27.90
2018-10-16T04:36:51.497Z,29.57
2018-10-16T04:39:21.557Z,29.90
2018-10-16T04:41:51.604Z,27.50
2018-10-16T04:44:21.730Z,31.27
2018-10-16T04:46:52.659Z,33.27
2018-10-16T04:49:22.763Z,37.03
2018-10-16T04:51:54.668Z,25.83
2018-10-16T04:54:24.671Z,22.57
2018-10-16T04:56:54.859Z,22.63
2018-10-16T04:59:24.909Z,23.93
2018-10-16T05:01:55.068Z,29.10
2018-10-16T05:04:26.182Z,24.03
2018-10-16T05:06:56.448Z,32.50
2018-10-16T05:09:27.431Z,25.43
2018-10-16T05:11:58.528Z,22.53
2018-10-16T05:14:28.516Z,23.03
2018-10-16T05:16:58.869Z,25.33
2018-10-16T05:19:28.928Z,25.93
2018-10-16T05:21:59.783Z,37.83
2018-10-16T05:24:30.272Z,22.33
2018-10-16T05:27:00.855Z,36.50
2018-10-16T05:29:31.016Z,26.37
2018-10-16T05:32:01.436Z,26.53
2018-10-16T05:34:31.599Z,24.20
2018-10-16T05:37:01.843Z,19.87
2018-10-16T05:39:32.144Z,29.53
2018-10-16T05:42:02.197Z,29.50
2018-10-16T05:44:32.586Z,28.23
2018-10-16T05:47:02.639Z,30.60
2018-10-16T05:49:33.010Z,28.10
2018-10-16T05:52:03.565Z,29.67
2018-10-16T05:54:33.686Z,30.53
2018-10-16T05:57:03.718Z,29.13
2018-10-16T05:59:33.874Z,28.67
2018-10-16T06:02:06.241Z,29.93
2018-10-16T06:04:36.973Z,26.47
2018-10-16T06:07:07.481Z,28.67
2018-10-16T06:09:37.611Z,29.03
2018-10-16T06:12:08.041Z,24.90
2018-10-16T06:14:39.151Z,26.47
2018-10-16T06:17:09.270Z,23.73
2018-10-16T06:19:39.510Z,20.50
2018-10-16T06:22:09.753Z,31.50
2018-10-16T06:24:39.784Z,21.87
2018-10-16T06:27:12.619Z,17.13
2018-10-16T06:29:43.158Z,21.97
2018-10-16T06:32:13.349Z,45.17
2018-10-16T06:34:43.600Z,23.10
2018-10-16T06:37:15.393Z,21.53
2018-10-16T06:39:45.406Z,22.40
2018-10-16T06:42:16.278Z,26.53
2018-10-16T06:44:46.916Z,15.07
2018-10-16T06:47:19.575Z,17.20
2018-10-16T06:49:49.995Z,20.57
2018-10-16T06:52:20.420Z,24.57
2018-10-16T06:54:50.650Z,20.53
2018-10-16T06:57:20.840Z,24.97
2018-10-16T06:59:51.037Z,24.83
2018-10-16T07:02:22.742Z,27.90
2018-10-16T07:04:52.852Z,26.40
2018-10-16T07:07:24.206Z,18.67
2018-10-16T07:09:54.259Z,19.20
2018-10-16T07:12:25.408Z,20.80
2018-10-16T07:14:55.597Z,16.77
2018-10-16T07:17:26.656Z,18.67
2018-10-16T07:19:56.796Z,20.77
2018-10-16T07:22:26.857Z,20.87
2018-10-16T07:24:58.122Z,20.70
2018-10-16T07:27:29.541Z,21.70
2018-10-16T07:29:59.763Z,14.67
2018-10-16T07:32:29.846Z,21.17
2018-10-16T07:35:00.892Z,19.47
2018-10-16T07:37:31.536Z,28.40
2018-10-16T07:40:02.943Z,27.93
2018-10-16T07:42:33.005Z,22.73
2018-10-16T07:45:06.760Z,21.87
2018-10-16T07:47:38.319Z,21.17
2018-10-16T07:50:10.750Z,22.43
2018-10-16T07:52:41.904Z,24.80
2018-10-16T07:55:13.711Z,27.47
2018-10-16T07:57:44.799Z,19.07
2018-10-16T08:00:14.980Z,26.17
2018-10-16T08:02:45.336Z,16.33
2018-10-16T08:05:16.465Z,19.10
2018-10-16T08:07:47.389Z,24.97
2018-10-16T08:10:17.565Z,20.90
2018-10-16T08:12:47.832Z,22.90
2018-10-16T08:15:19.075Z,19.00
2018-10-16T08:17:49.413Z,31.47
2018-10-16T08:20:19.547Z,20.50
2018-10-16T08:22:49.654Z,22.90
2018-10-16T08:25:19.669Z,22.40
2018-10-16T08:27:49.975Z,22.40
2018-10-16T08:30:20.099Z,17.07
2018-10-16T08:32:50.147Z,29.57
2018-10-16T08:35:20.277Z,20.23
2018-10-16T08:38:00.062Z,22.70
2018-10-16T08:40:30.363Z,23.53
2018-10-16T08:43:25.125Z,23.93
2018-10-16T08:46:05.732Z,22.40
2018-10-16T08:48:46.656Z,27.23
2018-10-16T08:51:27.375Z,26.87
2018-10-16T08:53:58.915Z,25.80
2018-10-16T08:56:29.521Z,27.63
2018-10-16T08:58:59.647Z,24.83
2018-10-16T09:01:30.060Z,23.70
2018-10-16T09:04:00.919Z,28.37
2018-10-16T09:06:31.150Z,24.73
2018-10-16T09:09:01.523Z,24.70
2018-10-16T09:11:33.115Z,23.70
2018-10-16T09:14:03.529Z,27.43
2018-10-16T09:16:34.290Z,30.53
2018-10-16T09:19:04.315Z,27.83
2018-10-16T09:21:34.697Z,24.47
2018-10-16T09:24:04.762Z,24.73
2018-10-16T09:26:35.156Z,25.40
2018-10-16T09:29:06.169Z,30.83
2018-10-16T09:31:37.033Z,20.47
2018-10-16T09:34:07.083Z,16.10
2018-10-16T09:36:37.165Z,21.00
2018-10-16T09:39:10.611Z,19.70
2018-10-16T09:41:40.699Z,19.73
2018-10-16T09:44:11.155Z,23.00
2018-10-16T09:46:41.743Z,21.70
2018-10-16T09:49:12.107Z,22.93
2018-10-16T09:51:42.303Z,19.33
2018-10-16T09:54:12.437Z,15.47
2018-10-16T09:56:43.476Z,17.47
2018-10-16T09:59:14.468Z,21.10
2018-10-16T10:01:48.009Z,21.57
2018-10-16T10:04:19.365Z,17.80
2018-10-16T10:06:49.493Z,14.60
2018-10-16T10:09:19.818Z,14.97
2018-10-16T10:11:50.028Z,22.33
2018-10-16T10:14:20.141Z,23.67
2018-10-16T10:16:50.277Z,15.33
2018-10-16T10:19:20.496Z,16.30
2018-10-16T10:21:51.807Z,17.40
2018-10-16T10:24:21.989Z,24.20
2018-10-16T10:26:52.113Z,16.80
2018-10-16T10:29:22.151Z,19.40
2018-10-16T10:31:52.231Z,24.63
2018-10-16T10:34:22.352Z,17.70
2018-10-16T10:36:52.438Z,23.83
2018-10-16T10:39:22.637Z,21.70
2018-10-16T10:41:53.907Z,19.50
2018-10-16T10:44:24.012Z,28.17
2018-10-16T10:46:54.379Z,21.07
2018-10-16T10:49:24.670Z,25.53
2018-10-16T10:51:55.839Z,24.77
2018-10-16T10:54:26.020Z,26.30
2018-10-16T10:56:57.371Z,17.63
2018-10-16T10:59:27.525Z,23.80
2018-10-16T11:01:57.387Z,17.90
2018-10-16T11:04:27.569Z,18.00
2018-10-16T11:06:57.872Z,21.60
2018-10-16T11:09:28.070Z,19.20
2018-10-16T11:11:58.487Z,18.40
2018-10-16T11:14:29.340Z,20.63
2018-10-16T11:16:59.875Z,18.50
2018-10-16T11:19:30.962Z,18.40
2018-10-16T11:22:01.119Z,15.97
2018-10-16T11:24:31.309Z,16.20
2018-10-16T11:27:01.473Z,15.57
2018-10-16T11:29:31.540Z,19.57
2018-10-16T11:32:01.986Z,15.93
2018-10-16T11:34:32.252Z,11.20
2018-10-16T11:37:03.605Z,41.17
2018-10-16T11:39:34.403Z,16.17
2018-10-16T11:42:04.664Z,20.07
2018-10-16T11:44:34.629Z,16.90
2018-10-16T11:47:04.877Z,20.83
2018-10-16T11:49:38.204Z,20.93
2018-10-16T11:52:08.646Z,16.47
2018-10-16T11:54:38.875Z,22.53
2018-10-16T11:57:10.382Z,20.37
2018-10-16T11:59:41.716Z,22.57
2018-10-16T12:02:12.130Z,17.77
2018-10-16T12:04:43.083Z,18.70
2018-10-16T12:07:13.783Z,30.80
2018-10-16T12:09:44.445Z,23.87
2018-10-16T12:12:16.001Z,15.93
2018-10-16T12:14:46.191Z,21.70
2018-10-16T12:17:25.205Z,17.20
2018-10-16T12:20:05.893Z,21.23
2018-10-16T12:22:37.311Z,23.60
2018-10-16T12:25:08.977Z,23.10
2018-10-16T12:27:39.006Z,28.27
2018-10-16T12:30:10.251Z,18.63
2018-10-16T12:32:41.485Z,28.17
2018-10-16T12:35:12.617Z,21.20
2018-10-16T12:37:43.092Z,16.93
2018-10-16T12:40:14.799Z,17.83
2018-10-16T12:42:44.954Z,35.23
2018-10-16T12:45:15.576Z,19.00
2018-10-16T12:47:45.744Z,19.47
2018-10-16T12:50:18.764Z,28.87
2018-10-16T12:52:48.970Z,24.80
2018-10-16T12:55:19.509Z,24.47
2018-10-16T12:57:49.721Z,21.07
2018-10-16T13:00:20.170Z,21.53
2018-10-16T13:02:51.282Z,25.97
2018-10-16T13:05:21.354Z,33.70
2018-10-16T13:07:51.419Z,21.27
2018-10-16T13:10:21.538Z,18.80
2018-10-16T13:12:51.804Z,19.80
2018-10-16T13:15:22.104Z,28.43
2018-10-16T13:17:52.332Z,20.20
2018-10-16T13:20:22.367Z,21.67
2018-10-16T13:22:53.282Z,22.30
2018-10-16T13:25:23.597Z,18.87
2018-10-16T13:27:54.687Z,21.53
2018-10-16T13:30:25.084Z,29.80
2018-10-16T13:32:55.933Z,21.83
2018-10-16T13:35:26.268Z,26.50
2018-10-16T13:37:56.335Z,20.37
2018-10-16T13:40:26.716Z,24.93
2018-10-16T13:42:56.959Z,19.73
2018-10-16T13:45:27.985Z,26.37
2018-10-16T13:47:57.878Z,18.43
2018-10-16T13:50:28.191Z,25.80
2018-10-16T13:52:58.302Z,24.33
2018-10-16T13:55:29.496Z,20.80
2018-10-16T13:57:59.693Z,25.00
2018-10-16T14:00:30.056Z,27.33
2018-10-16T14:03:01.162Z,22.40
2018-10-16T14:05:31.400Z,18.47
2018-10-16T14:08:01.609Z,20.47
2018-10-16T14:10:31.612Z,24.10
2018-10-16T14:13:02.062Z,25.63
2018-10-16T14:15:32.300Z,23.03
2018-10-16T14:18:03.919Z,21.37
2018-10-16T14:20:34.455Z,23.30
2018-10-16T14:23:05.579Z,26.40
2018-10-16T14:25:36.136Z,21.97
2018-10-16T14:28:06.729Z,17.63
2018-10-16T14:30:37.669Z,19.90
2018-10-16T14:33:11.986Z,26.47
2018-10-16T14:35:42.721Z,21.13
2018-10-16T14:38:12.973Z,19.70
2018-10-16T14:40:43.937Z,23.30
2018-10-16T14:43:14.016Z,19.43
2018-10-16T14:45:44.184Z,18.93
2018-10-16T14:48:15.690Z,27.80
2018-10-16T14:50:49.263Z,29.73
2018-10-16T14:53:19.443Z,18.97
2018-10-16T14:55:49.619Z,29.90
2018-10-16T14:58:20.904Z,26.40
2018-10-16T15:00:51.170Z,39.50
2018-10-16T15:03:21.013Z,26.17
2018-10-16T15:05:51.314Z,30.70
2018-10-16T15:08:21.844Z,24.73
2018-10-16T15:10:52.652Z,27.17
2018-10-16T15:13:26.058Z,27.67
2018-10-16T15:15:56.763Z,25.40
2018-10-16T15:18:27.868Z,30.30
2018-10-16T15:20:58.034Z,102.83
2018-10-16T15:23:28.350Z,93.17
2018-10-16T15:25:59.270Z,66.00
2018-10-16T15:28:29.520Z,33.47
2018-10-16T15:31:00.025Z,35.40
2018-10-16T15:33:30.647Z,34.20
2018-10-16T15:50:09.924Z,28.50
2018-10-16T15:52:39.826Z,33.03
2018-10-16T15:55:11.015Z,25.20
2018-10-16T15:57:42.051Z,32.30
2018-10-16T16:00:16.183Z,34.00
2018-10-16T16:02:45.995Z,28.47
2018-10-16T16:05:15.769Z,29.53
2018-10-16T16:07:45.574Z,29.47
2018-10-16T16:10:16.580Z,36.53
2018-10-16T16:12:46.435Z,31.37
2018-10-16T16:15:16.706Z,33.23
2018-10-16T16:17:46.486Z,36.07
2018-10-16T16:20:16.885Z,28.43
2018-10-16T16:22:46.921Z,30.53
2018-10-16T16:25:16.976Z,28.57
2018-10-16T16:27:46.805Z,31.73
2018-10-16T16:30:17.104Z,25.97
2018-10-16T16:32:47.697Z,31.43
2018-10-16T16:35:17.422Z,36.40
2018-10-16T16:37:47.399Z,34.03
2018-10-16T16:40:19.949Z,61.87
2018-10-16T16:42:49.855Z,33.13
2018-10-16T16:45:19.907Z,29.00
2018-10-16T16:47:51.855Z,27.97
2018-10-16T16:50:21.784Z,29.60
2018-10-16T16:52:51.543Z,24.10
2018-10-16T16:55:23.213Z,35.87
2018-10-16T16:57:54.773Z,27.27
2018-10-16T17:00:25.046Z,31.20
2018-10-16T17:02:57.350Z,58.27
2018-10-16T17:05:27.807Z,85.80
2018-10-16T17:07:58.349Z,51.60
2018-10-16T17:10:29.639Z,36.93
2018-10-16T17:13:01.585Z,30.40
2018-10-16T17:15:31.740Z,36.67
2018-10-16T17:18:03.242Z,37.43
2018-10-16T17:20:33.406Z,23.97
2018-10-16T17:23:03.313Z,25.63
2018-10-16T17:25:33.252Z,33.50
2018-10-16T17:28:03.254Z,41.40
2018-10-16T17:30:33.077Z,32.13
2018-10-16T17:33:04.150Z,30.70
2018-10-16T17:35:35.009Z,38.70
2018-10-16T17:38:05.328Z,30.67
2018-10-16T17:40:35.637Z,36.40
2018-10-16T17:43:05.486Z,25.37
2018-10-16T17:48:10.100Z,24.50
2018-10-16T17:50:39.865Z,25.57
2018-10-16T17:53:09.697Z,23.43
2018-10-16T17:55:39.594Z,30.90
2018-10-16T17:58:09.432Z,33.43
2018-10-16T18:00:39.768Z,28.50
2018-10-16T18:03:10.701Z,36.33
2018-10-16T18:05:40.627Z,26.50
2018-10-16T18:08:10.531Z,26.07
2018-10-16T18:10:40.495Z,27.70
2018-10-16T18:13:10.323Z,25.40
2018-10-16T18:15:40.178Z,29.17
2018-10-16T18:18:10.581Z,23.20
2018-10-16T18:20:40.388Z,25.43
2018-10-16T18:23:10.324Z,28.53
2018-10-16T18:25:40.477Z,30.87
2018-10-16T18:28:10.647Z,31.27
2018-10-16T18:30:40.479Z,27.83
2018-10-16T18:33:10.436Z,37.73
2018-10-16T18:35:40.272Z,19.07
2018-10-16T18:38:10.391Z,23.70
2018-10-16T18:40:40.174Z,28.23
2018-10-16T18:43:09.963Z,25.43
2018-10-16T18:45:39.815Z,31.43
2018-10-16T18:48:09.872Z,32.13
2018-10-16T18:50:39.652Z,26.47
2018-10-16T18:53:09.473Z,23.87
2018-10-16T18:55:39.216Z,23.53
2018-10-16T18:58:09.746Z,22.87
2018-10-16T19:00:39.502Z,29.57
2018-10-16T19:03:09.339Z,26.97
2018-10-16T19:05:39.149Z,36.33
2018-10-16T19:08:08.926Z,29.63
2018-10-16T19:10:38.748Z,29.70
2018-10-16T19:13:08.558Z,20.37
2018-10-16T19:15:38.334Z,29.13
2018-10-16T19:18:08.152Z,23.33
2018-10-16T19:20:37.979Z,28.50
2018-10-16T19:23:07.720Z,26.50
2018-10-16T19:25:37.491Z,23.13
2018-10-16T19:28:07.208Z,25.00
2018-10-16T19:30:37.025Z,26.77
2018-10-16T19:33:06.889Z,24.20
2018-10-16T19:35:36.610Z,23.33
2018-10-16T19:38:06.585Z,31.43
2018-10-16T19:40:37.780Z,20.27
2018-10-16T19:43:07.675Z,22.17
2018-10-16T19:45:37.531Z,23.43
2018-10-16T19:48:07.600Z,21.30
2018-10-16T19:50:37.440Z,31.57
2018-10-16T19:53:07.110Z,21.93
2018-10-16T19:55:37.051Z,18.10
2018-10-16T19:58:06.948Z,20.40
2018-10-16T20:00:36.782Z,27.17
2018-10-16T20:03:07.623Z,22.50
2018-10-16T20:05:37.935Z,21.57
2018-10-16T20:08:08.121Z,21.00
2018-10-16T20:10:38.500Z,21.83
2018-10-16T20:13:08.733Z,26.07
2018-10-16T20:15:39.752Z,23.17
2018-10-16T20:18:09.980Z,21.73
2018-10-16T20:20:40.309Z,22.30
2018-10-16T20:23:10.565Z,23.70
2018-10-16T20:25:40.619Z,23.37
2018-10-16T20:28:11.679Z,36.50
2018-10-16T20:30:41.941Z,24.43
2018-10-16T20:33:12.371Z,33.90
2018-10-16T20:35:43.842Z,26.40
2018-10-16T20:38:15.028Z,20.33
2018-10-16T20:40:44.920Z,23.60
2018-10-16T20:43:17.609Z,25.97
2018-10-16T20:45:47.836Z,27.23
2018-10-16T20:48:18.107Z,22.93
2018-10-16T20:50:48.240Z,22.23
2018-10-16T20:53:19.891Z,31.37
2018-10-16T20:55:49.636Z,32.70
2018-10-16T20:58:19.397Z,27.40
2018-10-16T21:00:49.694Z,27.00
2018-10-16T21:03:19.465Z,20.57
2018-10-16T21:05:49.261Z,22.13
2018-10-16T21:08:19.044Z,20.77
2018-10-16T21:10:48.920Z,23.60
2018-10-16T21:13:18.702Z,21.00
2018-10-16T21:15:48.811Z,16.97
2018-10-16T21:18:19.919Z,26.90
2018-10-16T21:20:51.411Z,20.80
2018-10-16T21:23:23.378Z,17.80
2018-10-16T21:25:53.515Z,19.93
2018-10-16T21:28:25.048Z,21.23
2018-10-16T21:30:55.215Z,22.23
2018-10-16T21:33:25.744Z,21.53
2018-10-16T21:35:56.328Z,19.40
2018-10-16T21:38:27.294Z,23.87
2018-10-16T21:40:57.322Z,19.03
2018-10-16T21:43:27.709Z,26.90
2018-10-16T21:45:57.732Z,19.13
2018-10-16T21:48:28.247Z,19.33
2018-10-16T21:50:58.447Z,22.03
2018-10-16T21:53:28.485Z,25.53
2018-10-16T21:55:58.391Z,24.57
2018-10-16T21:58:28.569Z,28.17
2018-10-16T22:01:03.444Z,23.10
2018-10-16T22:03:34.497Z,27.00
2018-10-16T22:06:04.973Z,26.60
2018-10-16T22:08:35.022Z,31.20
2018-10-16T22:11:05.242Z,28.90
2018-10-16T22:13:35.399Z,20.67
2018-10-16T22:16:05.981Z,28.50
2018-10-16T22:18:36.151Z,29.43
2018-10-16T22:21:06.403Z,27.83
2018-10-16T22:23:36.643Z,27.33
2018-10-16T22:26:06.641Z,29.93
2018-10-16T22:28:36.650Z,29.30
2018-10-16T22:31:07.151Z,28.53
2018-10-16T22:33:37.504Z,27.37
2018-10-16T22:36:07.664Z,34.93
2018-10-16T22:38:37.935Z,33.47
2018-10-16T22:41:09.281Z,31.00
2018-10-16T22:43:39.244Z,31.00
2018-10-16T22:46:09.446Z,32.13
2018-10-16T22:48:39.509Z,34.33
2018-10-16T22:51:09.940Z,30.10
2018-10-16T23:00:28.967Z,34.37
2018-10-16T23:02:58.853Z,24.03
2018-10-16T23:05:30.814Z,32.67
2018-10-16T23:08:01.300Z,48.27
2018-10-16T23:10:31.699Z,32.57
2018-10-16T23:13:05.967Z,27.63
2018-10-16T23:15:36.257Z,35.67
2018-10-16T23:18:06.628Z,28.43
2018-10-16T23:20:36.978Z,29.13
2018-10-16T23:23:07.315Z,26.50
2018-10-16T23:25:37.490Z,25.73
2018-10-16T23:28:07.688Z,25.00
2018-10-16T23:30:37.607Z,21.33
2018-10-16T23:33:07.933Z,23.90
2018-10-16T23:35:37.958Z,33.30
2018-10-16T23:38:10.892Z,24.87
2018-10-16T23:40:41.113Z,23.93
2018-10-16T23:43:11.926Z,27.40
2018-10-16T23:45:42.083Z,20.80
2018-10-16T23:48:12.648Z,20.63
2018-10-16T23:50:42.721Z,25.07
2018-10-16T23:53:13.044Z,21.10
2018-10-16T23:55:44.088Z,26.50
2018-10-16T23:58:15.810Z,20.57
